Horley, United Kingdom
Current Conditions -  °F | °C
As of 12:20 AM on Sunday 21 Dec 2014 (Local Time) from EGKK Reporting Station
Clear Clear  
Wind Chill: 36°   Ceiling: Unl
Heat Index: 41°   Visibility: 6mi
Dew Point: 37°   Wind: 8mph
Humidity: 87%   Direction: 230°SW
Pressure: 30.48"   Gusts: NA
Location:  51.17°N, 0.18°W
Report Text: EGKK 210020Z 23007KT CAVOK 05/03 Q1032
Loading
Personal Weather Stations






























Interactive Weather Map New forecast layout! Learn more

10-Day Weather Forecast

Advertisements
Track Severe Weather on mobile